createdAt,value
2018-03-31T00:01:45.577Z,96624.52
2018-03-31T00:04:14.369Z,96613.48
2018-03-31T00:06:43.117Z,96602.63
2018-03-31T00:09:11.587Z,96605.20
2018-03-31T00:11:40.354Z,96616.49
2018-03-31T00:14:09.188Z,96614.28
2018-03-31T00:16:38.002Z,96623.69
2018-03-31T00:19:06.495Z,96612.03
2018-03-31T00:21:35.394Z,96603.76
2018-03-31T00:24:04.472Z,96598.66
2018-03-31T00:26:32.988Z,96600.02
2018-03-31T00:29:01.767Z,96595.01
2018-03-31T00:31:30.554Z,96593.41
2018-03-31T00:33:59.343Z,96584.12
2018-03-31T00:36:28.318Z,96581.20
2018-03-31T00:38:56.806Z,96571.86
2018-03-31T00:41:25.556Z,96566.23
2018-03-31T00:43:54.308Z,96555.05
2018-03-31T00:46:23.060Z,96554.27
2018-03-31T00:48:51.836Z,96553.12
2018-03-31T00:51:20.767Z,96551.61
2018-03-31T00:53:49.548Z,96565.06
2018-03-31T00:56:18.593Z,96564.33
2018-03-31T00:58:47.398Z,96546.97
2018-03-31T01:01:15.882Z,96552.27
2018-03-31T01:03:44.699Z,96552.81
2018-03-31T01:06:13.448Z,96544.88
2018-03-31T01:08:42.230Z,96555.86
2018-03-31T01:11:11.481Z,96549.07
2018-03-31T01:13:40.280Z,96543.42
2018-03-31T01:16:09.036Z,96541.19
2018-03-31T01:18:37.852Z,96533.26
2018-03-31T01:21:06.651Z,96533.98
2018-03-31T01:23:35.517Z,96536.43
2018-03-31T01:26:04.331Z,96534.42
2018-03-31T01:28:33.127Z,96534.20
2018-03-31T01:31:01.869Z,96541.74
2018-03-31T01:33:30.637Z,96547.97
2018-03-31T01:35:59.383Z,96551.08
2018-03-31T01:38:27.860Z,96540.36
2018-03-31T01:40:56.620Z,96528.41
2018-03-31T01:43:25.369Z,96521.73
2018-03-31T01:45:53.924Z,96510.97
2018-03-31T01:48:22.666Z,96503.29
2018-03-31T01:50:51.461Z,96503.57
2018-03-31T01:53:20.312Z,96503.34
2018-03-31T01:55:48.791Z,96498.83
2018-03-31T01:58:17.555Z,96503.05
2018-03-31T02:00:46.362Z,96501.22
2018-03-31T02:03:15.151Z,96493.98
2018-03-31T02:05:43.877Z,96506.80
2018-03-31T02:08:12.402Z,96511.26
2018-03-31T02:10:41.335Z,96507.47
2018-03-31T02:13:09.836Z,96499.80
2018-03-31T02:15:38.588Z,96506.89
2018-03-31T02:18:07.343Z,96502.39
2018-03-31T02:20:36.121Z,96510.11
2018-03-31T02:23:04.895Z,96513.78
2018-03-31T02:25:33.444Z,96518.70
2018-03-31T02:28:02.210Z,96519.48
2018-03-31T02:30:31.005Z,96517.53
2018-03-31T02:32:59.811Z,96512.37
2018-03-31T02:35:28.605Z,96528.00
2018-03-31T02:37:57.338Z,96523.38
2018-03-31T02:40:26.091Z,96537.45
2018-03-31T02:42:54.878Z,96534.72
2018-03-31T02:45:23.631Z,96530.17
2018-03-31T02:47:52.411Z,96538.02
2018-03-31T02:50:21.153Z,96539.17
2018-03-31T02:52:50.077Z,96540.47
2018-03-31T02:55:18.461Z,96547.27
2018-03-31T02:57:47.284Z,96529.33
2018-03-31T03:00:16.034Z,96531.23
2018-03-31T03:02:44.590Z,96531.16
2018-03-31T03:05:13.060Z,96531.27
2018-03-31T03:07:41.846Z,96533.02
2018-03-31T03:10:10.664Z,96531.20
2018-03-31T03:12:39.430Z,96527.85
2018-03-31T03:15:07.943Z,96528.69
2018-03-31T03:17:36.733Z,96532.58
2018-03-31T03:20:04.992Z,96531.59
2018-03-31T03:22:33.179Z,96528.20
2018-03-31T03:25:01.425Z,96531.16
2018-03-31T03:27:29.610Z,96537.64
2018-03-31T03:29:57.805Z,96534.73
2018-03-31T03:32:25.981Z,96528.41
2018-03-31T03:34:54.234Z,96533.69
2018-03-31T03:37:22.458Z,96534.48
2018-03-31T03:39:50.711Z,96530.68
2018-03-31T03:42:18.999Z,96532.80
2018-03-31T03:44:47.218Z,96531.40
2018-03-31T03:47:15.452Z,96532.01
2018-03-31T03:49:43.664Z,96524.91
2018-03-31T03:52:11.892Z,96519.61
2018-03-31T03:54:40.115Z,96521.59
2018-03-31T03:57:08.321Z,96528.89
2018-03-31T03:59:36.583Z,96524.00
2018-03-31T04:02:04.796Z,96531.27
2018-03-31T04:04:33.043Z,96531.80
2018-03-31T04:07:01.024Z,96528.81
2018-03-31T04:09:29.035Z,96534.13
2018-03-31T04:11:57.246Z,96540.28
2018-03-31T04:14:25.473Z,96541.38
2018-03-31T04:16:53.749Z,96553.06
2018-03-31T04:19:22.116Z,96552.23
2018-03-31T04:21:50.330Z,96544.36
2018-03-31T04:24:18.567Z,96550.54
2018-03-31T04:26:46.758Z,96550.25
2018-03-31T04:29:14.977Z,96558.59
2018-03-31T04:31:44.030Z,96557.84
2018-03-31T04:34:12.267Z,96558.00
2018-03-31T04:36:40.463Z,96560.73
2018-03-31T04:39:08.752Z,96551.70
2018-03-31T04:41:37.014Z,96549.98
2018-03-31T04:44:05.598Z,96559.02
2018-03-31T04:46:33.903Z,96559.17
2018-03-31T04:49:02.121Z,96548.66
2018-03-31T04:51:30.134Z,96556.00
2018-03-31T04:53:58.086Z,96557.33
2018-03-31T04:56:26.458Z,96565.91
2018-03-31T04:58:54.799Z,96575.98
2018-03-31T05:01:23.037Z,96584.45
2018-03-31T05:03:52.136Z,96590.45
2018-03-31T05:06:20.298Z,96595.56
2018-03-31T05:08:48.309Z,96597.08
2018-03-31T05:11:16.799Z,96584.71
2018-03-31T05:13:44.781Z,96588.33
2018-03-31T11:51:14.458Z,97399.97
2018-03-31T11:53:42.423Z,97394.86
2018-03-31T11:56:10.440Z,97385.30
2018-03-31T11:58:38.340Z,97390.61
2018-03-31T12:01:06.057Z,97373.84
2018-03-31T12:03:34.020Z,97382.21
2018-03-31T12:06:01.917Z,97389.78
2018-03-31T12:08:29.844Z,97391.12
2018-03-31T12:10:57.725Z,97392.88
2018-03-31T12:13:25.610Z,97386.02
2018-03-31T12:15:53.533Z,97395.67
2018-03-31T12:18:21.408Z,97386.47
2018-03-31T12:20:49.304Z,97384.53
2018-03-31T12:23:17.197Z,97378.66
2018-03-31T12:25:45.138Z,97372.37
2018-03-31T12:28:13.021Z,97358.77
2018-03-31T12:30:40.935Z,97366.19
2018-03-31T12:33:08.965Z,97350.88
2018-03-31T12:35:36.851Z,97343.36
2018-03-31T12:38:04.748Z,97333.45
2018-03-31T12:40:33.971Z,97333.53
2018-03-31T12:43:01.969Z,97334.98
2018-03-31T12:45:29.912Z,97321.13
2018-03-31T12:47:57.795Z,97302.27
2018-03-31T12:50:25.689Z,97304.25
2018-03-31T12:52:53.578Z,97310.82
2018-03-31T12:55:21.519Z,97338.98
2018-03-31T12:57:49.420Z,97359.55
2018-03-31T13:00:17.332Z,97359.48
2018-03-31T13:02:45.248Z,97362.31
2018-03-31T13:05:13.132Z,97357.28
2018-03-31T13:07:41.047Z,97351.96
2018-03-31T13:10:08.947Z,97356.26
2018-03-31T13:12:36.827Z,97339.65
2018-03-31T13:15:04.534Z,97341.05
2018-03-31T13:17:32.444Z,97347.31
2018-03-31T13:20:00.332Z,97354.75
2018-03-31T13:22:28.283Z,97345.33
2018-03-31T13:24:56.160Z,97348.03
2018-03-31T13:27:24.156Z,97352.42
2018-03-31T13:29:52.033Z,97341.94
2018-03-31T13:32:19.952Z,97334.72
2018-03-31T13:34:47.868Z,97323.81
2018-03-31T13:37:15.836Z,97335.02
2018-03-31T13:39:43.741Z,97348.13
2018-03-31T13:42:11.501Z,97342.20
2018-03-31T13:44:39.419Z,97302.91
2018-03-31T13:47:07.567Z,97293.84
2018-03-31T13:49:35.449Z,97295.31
2018-03-31T13:52:03.367Z,97293.84
2018-03-31T13:54:31.248Z,97291.23
2018-03-31T13:56:59.248Z,97290.60
2018-03-31T13:59:27.148Z,97285.40
2018-03-31T14:01:55.037Z,97298.47
2018-03-31T14:04:22.960Z,97301.61
2018-03-31T14:06:50.859Z,97290.95
2018-03-31T14:09:18.748Z,97265.16
2018-03-31T14:11:46.461Z,97251.50
2018-03-31T14:14:14.354Z,97245.58
2018-03-31T14:16:42.253Z,97240.95
2018-03-31T14:19:10.143Z,97235.08
2018-03-31T14:21:38.027Z,97217.43
2018-03-31T14:24:05.947Z,97221.91
2018-03-31T14:26:33.835Z,97225.75
2018-03-31T14:29:01.832Z,97235.55
2018-03-31T14:31:29.769Z,97247.44
2018-03-31T14:33:57.678Z,97255.67
2018-03-31T14:36:25.566Z,97251.20
2018-03-31T14:38:53.484Z,97250.22
2018-03-31T14:41:21.375Z,97235.64
2018-03-31T14:43:49.290Z,97257.09
2018-03-31T14:46:17.213Z,97274.79
2018-03-31T14:48:45.105Z,97271.20
2018-03-31T14:51:13.119Z,97267.53
2018-03-31T14:53:41.053Z,97267.61
2018-03-31T14:56:08.956Z,97269.92
2018-03-31T14:58:36.940Z,97266.91
2018-03-31T15:01:04.750Z,97261.34
2018-03-31T15:03:32.746Z,97250.36
2018-03-31T15:06:00.639Z,97248.67
2018-03-31T15:08:28.526Z,97245.89
2018-03-31T15:10:56.428Z,97250.06
2018-03-31T15:13:24.339Z,97243.50
2018-03-31T15:15:52.219Z,97233.36
2018-03-31T15:18:20.122Z,97208.72
2018-03-31T15:20:48.048Z,97207.73
2018-03-31T15:23:15.956Z,97225.38
2018-03-31T15:28:18.041Z,97232.18
2018-03-31T15:30:45.972Z,97242.83
2018-03-31T15:33:13.852Z,97237.62
2018-03-31T15:35:41.755Z,97236.39
2018-03-31T15:38:09.830Z,97227.52
2018-03-31T15:40:37.736Z,97228.57
2018-03-31T15:43:05.661Z,97239.02
2018-03-31T15:45:33.544Z,97238.23
2018-03-31T15:48:01.548Z,97230.12
2018-03-31T15:50:29.433Z,97228.75
2018-03-31T15:52:57.326Z,97223.14
2018-03-31T15:55:25.307Z,97217.88
2018-03-31T15:57:53.203Z,97218.48
2018-03-31T16:00:21.096Z,97219.21
2018-03-31T16:02:49.014Z,97212.27
2018-03-31T16:05:16.908Z,97213.69
2018-03-31T16:07:44.798Z,97210.78
2018-03-31T16:10:12.720Z,97207.21
2018-03-31T16:12:40.630Z,97206.88
2018-03-31T16:15:08.508Z,97191.39
2018-03-31T16:17:36.424Z,97203.28
2018-03-31T16:20:04.804Z,97204.37
2018-03-31T16:22:32.721Z,97212.78
2018-03-31T16:25:00.636Z,97202.09
2018-03-31T16:27:28.527Z,97205.55
2018-03-31T16:29:56.457Z,97210.12
2018-03-31T16:32:24.453Z,97208.98
2018-03-31T16:34:52.356Z,97205.24
2018-03-31T16:37:20.597Z,97207.27
2018-03-31T16:39:48.814Z,97214.62
2018-03-31T16:42:17.012Z,97206.17
2018-03-31T16:44:45.279Z,97197.54
2018-03-31T16:47:13.481Z,97197.39
2018-03-31T16:49:41.720Z,97206.25
2018-03-31T16:52:10.020Z,97217.78
2018-03-31T16:54:38.208Z,97227.42
2018-03-31T16:57:06.432Z,97217.02
2018-03-31T16:59:34.675Z,97214.73
2018-03-31T17:02:02.857Z,97223.55
2018-03-31T17:04:31.055Z,97220.22
2018-03-31T17:06:59.243Z,97221.38
2018-03-31T17:09:27.425Z,97211.72
2018-03-31T17:11:55.654Z,97216.41
2018-03-31T17:14:23.856Z,97218.35
2018-03-31T17:16:52.016Z,97212.53
2018-03-31T17:19:20.208Z,97206.31
2018-03-31T17:21:48.525Z,97213.17
2018-03-31T17:24:16.704Z,97209.00
2018-03-31T17:26:44.891Z,97222.00
2018-03-31T17:29:13.068Z,97231.97
2018-03-31T17:31:41.322Z,97233.99
2018-03-31T17:34:09.500Z,97243.84
2018-03-31T17:36:37.801Z,97237.75
2018-03-31T17:39:06.154Z,97237.22
2018-03-31T17:41:34.628Z,97242.66
2018-03-31T17:44:02.899Z,97244.41
2018-03-31T17:46:31.080Z,97251.73
2018-03-31T17:48:59.269Z,97252.77
2018-03-31T17:51:27.451Z,97254.11
2018-03-31T17:53:55.657Z,97258.03
2018-03-31T17:56:23.850Z,97258.43
2018-03-31T17:58:52.068Z,97253.52
2018-03-31T18:01:20.251Z,97251.04
2018-03-31T18:03:48.404Z,97255.05
2018-03-31T18:06:16.595Z,97258.23
2018-03-31T18:08:44.780Z,97253.80
2018-03-31T18:11:12.956Z,97255.49
2018-03-31T18:13:41.159Z,97251.31
2018-03-31T18:16:09.519Z,97252.53
2018-03-31T18:18:37.732Z,97263.98
2018-03-31T18:21:05.936Z,97261.52
2018-03-31T18:23:34.128Z,97255.35
2018-03-31T18:26:02.349Z,97254.72
2018-03-31T18:28:30.600Z,97263.17
2018-03-31T18:30:58.931Z,97267.79
2018-03-31T18:33:27.132Z,97262.00
2018-03-31T18:35:55.365Z,97258.98
2018-03-31T18:38:23.615Z,97257.33
2018-03-31T18:40:51.923Z,97257.59
2018-03-31T18:43:20.208Z,97262.03
2018-03-31T18:45:48.371Z,97255.73
2018-03-31T18:48:16.565Z,97245.41
2018-03-31T18:50:44.844Z,97252.31
2018-03-31T18:53:13.089Z,97239.78
2018-03-31T18:55:41.303Z,97243.33
2018-03-31T18:58:09.492Z,97246.86
2018-03-31T19:00:37.715Z,97263.97
2018-03-31T19:03:05.988Z,97272.23
2018-03-31T19:05:34.191Z,97272.09
2018-03-31T19:08:02.370Z,97275.56
2018-03-31T19:10:30.540Z,97280.75
2018-03-31T19:12:58.740Z,97285.36
2018-03-31T19:15:26.924Z,97269.53
2018-03-31T19:17:55.123Z,97265.92
2018-03-31T19:20:23.312Z,97261.81
2018-03-31T19:22:51.503Z,97261.34
2018-03-31T19:25:25.126Z,97255.38
2018-03-31T19:27:53.328Z,97245.05
2018-03-31T19:30:21.319Z,97234.80
2018-03-31T19:32:49.511Z,97227.91
2018-03-31T19:35:17.714Z,97232.27
2018-03-31T19:37:45.901Z,97255.30
2018-03-31T19:40:14.112Z,97270.52
2018-03-31T19:42:42.311Z,97269.06
2018-03-31T19:45:10.571Z,97265.45
2018-03-31T19:47:38.927Z,97280.95
2018-03-31T19:50:07.115Z,97285.77
2018-03-31T19:52:35.312Z,97276.95
2018-03-31T19:55:03.704Z,97258.64
2018-03-31T19:57:31.888Z,97260.42
2018-03-31T20:00:00.076Z,97254.79
2018-03-31T20:02:28.260Z,97253.17
2018-03-31T20:04:56.478Z,97256.27
2018-03-31T20:07:24.656Z,97256.43
2018-03-31T20:09:52.841Z,97260.84
2018-03-31T20:12:21.047Z,97272.52
2018-03-31T20:14:49.232Z,97271.47
2018-03-31T20:17:17.421Z,97279.52
2018-03-31T20:19:45.383Z,97275.10
2018-03-31T20:22:13.558Z,97274.05
2018-03-31T20:24:41.787Z,97272.03
2018-03-31T20:27:09.988Z,97271.06
2018-03-31T20:29:38.188Z,97262.75
2018-03-31T20:32:06.348Z,97265.63
2018-03-31T20:34:34.307Z,97261.31
2018-03-31T20:37:02.471Z,97257.17
2018-03-31T20:39:30.688Z,97252.84
2018-03-31T20:41:58.860Z,97261.20
2018-03-31T20:44:27.053Z,97272.11
2018-03-31T20:46:55.252Z,97287.09
2018-03-31T20:49:23.424Z,97281.55
2018-03-31T20:51:51.604Z,97279.27
2018-03-31T20:54:19.776Z,97281.98
2018-03-31T20:56:47.951Z,97282.42
2018-03-31T20:59:16.121Z,97290.63
2018-03-31T21:01:44.370Z,97294.39
2018-03-31T21:04:12.532Z,97300.18
2018-03-31T21:06:40.813Z,97308.25
2018-03-31T21:09:08.984Z,97321.02
2018-03-31T21:11:37.135Z,97321.84
2018-03-31T21:14:05.312Z,97330.43
2018-03-31T21:16:33.484Z,97332.31
2018-03-31T21:19:01.659Z,97333.52
2018-03-31T21:21:29.832Z,97332.59
2018-03-31T21:23:58.004Z,97325.98
2018-03-31T21:26:26.260Z,97325.06
2018-03-31T21:28:54.512Z,97320.23
2018-03-31T21:31:22.787Z,97303.81
2018-03-31T21:33:50.968Z,97302.63
2018-03-31T21:36:19.147Z,97306.51
2018-03-31T21:38:47.304Z,97315.80
2018-03-31T21:41:15.480Z,97319.71
2018-03-31T21:43:43.751Z,97317.17
2018-03-31T21:46:11.916Z,97311.53
2018-03-31T21:48:40.140Z,97302.80
2018-03-31T21:51:08.100Z,97325.66
2018-03-31T21:53:36.280Z,97319.62
2018-03-31T21:56:04.452Z,97314.38
2018-03-31T21:58:32.620Z,97306.18
2018-03-31T22:01:00.828Z,97309.80
2018-03-31T22:03:29.115Z,97312.86
2018-03-31T22:05:57.291Z,97315.44
2018-03-31T22:08:25.668Z,97317.06
2018-03-31T22:10:53.882Z,97325.53
2018-03-31T22:13:27.671Z,97330.39
2018-03-31T22:15:55.869Z,97324.72
2018-03-31T22:18:24.042Z,97327.81
2018-03-31T22:20:52.225Z,97332.54
2018-03-31T22:23:20.959Z,97324.59
2018-03-31T22:25:49.176Z,97334.94
2018-03-31T22:28:17.413Z,97331.31
2018-03-31T22:30:45.589Z,97331.16
2018-03-31T22:33:13.911Z,97337.88
2018-03-31T22:35:42.099Z,97334.66
2018-03-31T22:38:10.376Z,97336.52
2018-03-31T22:40:38.555Z,97323.08
2018-03-31T22:43:06.759Z,97314.91
2018-03-31T22:45:34.968Z,97318.80
2018-03-31T22:48:03.147Z,97337.92
2018-03-31T22:50:31.359Z,97332.01
2018-03-31T22:52:59.553Z,97320.85
2018-03-31T22:55:27.768Z,97327.70
2018-03-31T22:57:56.059Z,97325.27
2018-03-31T23:00:24.257Z,97328.25
2018-03-31T23:02:52.528Z,97333.77
2018-03-31T23:05:21.460Z,97329.72
2018-03-31T23:07:50.220Z,97330.79
2018-03-31T23:10:18.954Z,97342.49
2018-03-31T23:12:47.756Z,97337.77
2018-03-31T23:15:16.504Z,97336.83
2018-03-31T23:17:45.257Z,97337.81
2018-03-31T23:20:13.800Z,97341.28
2018-03-31T23:22:43.029Z,97347.48
2018-03-31T23:25:11.752Z,97333.36
2018-03-31T23:27:40.516Z,97347.61
2018-03-31T23:30:09.276Z,97345.73
2018-03-31T23:32:38.013Z,97349.77
2018-03-31T23:35:06.748Z,97346.00
2018-03-31T23:37:35.496Z,97348.55
2018-03-31T23:40:03.886Z,97355.27
2018-03-31T23:42:32.063Z,97348.67
2018-03-31T23:45:00.116Z,97339.53
2018-03-31T23:47:28.080Z,97341.44
2018-03-31T23:49:56.332Z,97342.63
2018-03-31T23:52:24.520Z,97343.58
2018-03-31T23:54:52.912Z,97337.68
2018-03-31T23:57:21.102Z,97345.59
2018-03-31T23:59:49.483Z,97347.87
